sensor_id;sensor_type;location;lat;lon;timestamp;temperature;humidity
21823;DHT22;11074;48.596;9.238;2023-07-08T00:01:17;22.00;99.90
21823;DHT22;11074;48.596;9.238;2023-07-08T00:03:44;22.10;99.90
21823;DHT22;11074;48.596;9.238;2023-07-08T00:06:18;22.10;99.90
21823;DHT22;11074;48.596;9.238;2023-07-08T00:08:48;22.10;99.90
21823;DHT22;11074;48.596;9.238;2023-07-08T00:11:15;22.10;99.90
21823;DHT22;11074;48.596;9.238;2023-07-08T00:13:42;22.10;99.90
21823;DHT22;11074;48.596;9.238;2023-07-08T00:16:12;22.10;99.90
21823;DHT22;11074;48.596;9.238;2023-07-08T00:18:40;22.10;99.90
21823;DHT22;11074;48.596;9.238;2023-07-08T00:21:10;22.10;99.90
21823;DHT22;11074;48.596;9.238;2023-07-08T00:23:42;22.10;99.90
21823;DHT22;11074;48.596;9.238;2023-07-08T00:26:20;22.10;99.90
21823;DHT22;11074;48.596;9.238;2023-07-08T00:28:49;22.00;99.90
21823;DHT22;11074;48.596;9.238;2023-07-08T00:31:15;22.00;99.90
21823;DHT22;11074;48.596;9.238;2023-07-08T00:33:41;22.00;99.90
21823;DHT22;11074;48.596;9.238;2023-07-08T00:36:14;21.90;99.90
21823;DHT22;11074;48.596;9.238;2023-07-08T00:38:41;21.90;99.90
21823;DHT22;11074;48.596;9.238;2023-07-08T00:43:56;21.70;99.90
21823;DHT22;11074;48.596;9.238;2023-07-08T00:52:16;21.50;99.90
21823;DHT22;11074;48.596;9.238;2023-07-08T00:54:44;21.50;99.90
21823;DHT22;11074;48.596;9.238;2023-07-08T00:57:10;21.40;99.90
21823;DHT22;11074;48.596;9.238;2023-07-08T00:59:41;21.50;99.90
21823;DHT22;11074;48.596;9.238;2023-07-08T01:02:17;21.40;99.90
21823;DHT22;11074;48.596;9.238;2023-07-08T01:04:52;21.40;99.90
21823;DHT22;11074;48.596;9.238;2023-07-08T01:07:28;21.30;99.90
21823;DHT22;11074;48.596;9.238;2023-07-08T01:10:06;21.20;99.90
21823;DHT22;11074;48.596;9.238;2023-07-08T01:12:46;21.30;99.90
21823;DHT22;11074;48.596;9.238;2023-07-08T01:15:14;21.30;99.90
21823;DHT22;11074;48.596;9.238;2023-07-08T01:17:42;21.30;99.90
21823;DHT22;11074;48.596;9.238;2023-07-08T01:20:09;21.20;99.90
21823;DHT22;11074;48.596;9.238;2023-07-08T01:22:39;21.20;99.90
21823;DHT22;11074;48.596;9.238;2023-07-08T01:25:07;21.20;99.90
21823;DHT22;11074;48.596;9.238;2023-07-08T01:27:38;21.20;99.90
21823;DHT22;11074;48.596;9.238;2023-07-08T01:30:07;21.20;99.90
21823;DHT22;11074;48.596;9.238;2023-07-08T01:32:36;21.20;99.90
21823;DHT22;11074;48.596;9.238;2023-07-08T01:35:05;21.10;99.90
21823;DHT22;11074;48.596;9.238;2023-07-08T01:37:37;21.10;99.90
21823;DHT22;11074;48.596;9.238;2023-07-08T01:40:16;21.10;99.90
21823;DHT22;11074;48.596;9.238;2023-07-08T01:42:49;21.00;99.90
21823;DHT22;11074;48.596;9.238;2023-07-08T01:45:17;21.00;99.90
21823;DHT22;11074;48.596;9.238;2023-07-08T01:47:56;21.00;99.90
21823;DHT22;11074;48.596;9.238;2023-07-08T01:50:25;20.90;99.90
21823;DHT22;11074;48.596;9.238;2023-07-08T01:52:53;20.90;99.90
21823;DHT22;11074;48.596;9.238;2023-07-08T01:55:24;21.00;99.90
21823;DHT22;11074;48.596;9.238;2023-07-08T01:57:54;21.00;99.90
21823;DHT22;11074;48.596;9.238;2023-07-08T02:00:21;20.90;99.90
21823;DHT22;11074;48.596;9.238;2023-07-08T02:02:48;20.90;99.90
21823;DHT22;11074;48.596;9.238;2023-07-08T02:05:15;20.90;99.90
21823;DHT22;11074;48.596;9.238;2023-07-08T02:07:41;20.90;99.90
21823;DHT22;11074;48.596;9.238;2023-07-08T02:10:07;20.80;99.90
21823;DHT22;11074;48.596;9.238;2023-07-08T02:12:33;20.80;99.90
21823;DHT22;11074;48.596;9.238;2023-07-08T02:15:00;20.80;99.90
21823;DHT22;11074;48.596;9.238;2023-07-08T02:17:27;20.80;99.90
21823;DHT22;11074;48.596;9.238;2023-07-08T02:19:56;20.80;99.90
21823;DHT22;11074;48.596;9.238;2023-07-08T02:22:22;20.70;99.90
21823;DHT22;11074;48.596;9.238;2023-07-08T02:24:47;20.70;99.90
21823;DHT22;11074;48.596;9.238;2023-07-08T02:27:13;20.70;99.90
21823;DHT22;11074;48.596;9.238;2023-07-08T02:29:39;20.70;99.90
21823;DHT22;11074;48.596;9.238;2023-07-08T02:32:06;20.70;99.90
21823;DHT22;11074;48.596;9.238;2023-07-08T02:34:32;20.70;99.90
21823;DHT22;11074;48.596;9.238;2023-07-08T02:36:58;20.60;99.90
21823;DHT22;11074;48.596;9.238;2023-07-08T02:39:23;20.60;99.90
21823;DHT22;11074;48.596;9.238;2023-07-08T02:41:49;20.60;99.90
21823;DHT22;11074;48.596;9.238;2023-07-08T02:44:15;20.60;99.90
21823;DHT22;11074;48.596;9.238;2023-07-08T02:46:40;20.60;99.90
21823;DHT22;11074;48.596;9.238;2023-07-08T02:49:06;20.60;99.90
21823;DHT22;11074;48.596;9.238;2023-07-08T02:51:32;20.50;99.90
21823;DHT22;11074;48.596;9.238;2023-07-08T02:53:58;20.40;99.90
21823;DHT22;11074;48.596;9.238;2023-07-08T02:56:24;20.40;99.90
21823;DHT22;11074;48.596;9.238;2023-07-08T02:58:52;20.40;99.90
21823;DHT22;11074;48.596;9.238;2023-07-08T03:01:18;20.40;99.90
21823;DHT22;11074;48.596;9.238;2023-07-08T03:03:45;20.40;99.90
21823;DHT22;11074;48.596;9.238;2023-07-08T03:06:11;20.40;99.90
21823;DHT22;11074;48.596;9.238;2023-07-08T03:08:37;20.40;99.90
21823;DHT22;11074;48.596;9.238;2023-07-08T03:11:05;20.30;99.90
21823;DHT22;11074;48.596;9.238;2023-07-08T03:13:33;20.30;99.90
21823;DHT22;11074;48.596;9.238;2023-07-08T03:16:01;20.30;99.90
21823;DHT22;11074;48.596;9.238;2023-07-08T03:18:28;20.30;99.90
21823;DHT22;11074;48.596;9.238;2023-07-08T03:20:55;20.30;99.90
21823;DHT22;11074;48.596;9.238;2023-07-08T03:23:23;20.30;99.90
21823;DHT22;11074;48.596;9.238;2023-07-08T03:25:51;20.30;99.90
21823;DHT22;11074;48.596;9.238;2023-07-08T03:28:17;20.30;99.90
21823;DHT22;11074;48.596;9.238;2023-07-08T03:30:43;20.20;99.90
21823;DHT22;11074;48.596;9.238;2023-07-08T03:33:11;20.20;99.90
21823;DHT22;11074;48.596;9.238;2023-07-08T03:35:37;20.20;99.90
21823;DHT22;11074;48.596;9.238;2023-07-08T03:38:04;20.20;99.90
21823;DHT22;11074;48.596;9.238;2023-07-08T03:40:30;20.10;99.90
21823;DHT22;11074;48.596;9.238;2023-07-08T03:42:56;20.10;99.90
21823;DHT22;11074;48.596;9.238;2023-07-08T03:45:22;20.10;99.90
21823;DHT22;11074;48.596;9.238;2023-07-08T03:47:48;20.00;99.90
21823;DHT22;11074;48.596;9.238;2023-07-08T03:50:19;20.00;99.90
21823;DHT22;11074;48.596;9.238;2023-07-08T03:52:51;20.00;99.90
21823;DHT22;11074;48.596;9.238;2023-07-08T03:55:19;20.00;99.90
21823;DHT22;11074;48.596;9.238;2023-07-08T03:57:45;20.00;99.90
21823;DHT22;11074;48.596;9.238;2023-07-08T04:00:12;19.90;99.90
21823;DHT22;11074;48.596;9.238;2023-07-08T04:02:39;19.90;99.90
21823;DHT22;11074;48.596;9.238;2023-07-08T04:05:06;19.90;99.90
21823;DHT22;11074;48.596;9.238;2023-07-08T04:07:35;19.90;99.90
21823;DHT22;11074;48.596;9.238;2023-07-08T04:10:01;19.90;99.90
21823;DHT22;11074;48.596;9.238;2023-07-08T04:12:27;19.90;99.90
21823;DHT22;11074;48.596;9.238;2023-07-08T04:14:52;20.00;99.90
21823;DHT22;11074;48.596;9.238;2023-07-08T04:17:18;20.00;99.90
21823;DHT22;11074;48.596;9.238;2023-07-08T04:19:45;20.00;99.90
21823;DHT22;11074;48.596;9.238;2023-07-08T04:22:11;20.00;99.90
21823;DHT22;11074;48.596;9.238;2023-07-08T04:24:37;20.00;99.90
21823;DHT22;11074;48.596;9.238;2023-07-08T04:27:03;19.90;99.90
21823;DHT22;11074;48.596;9.238;2023-07-08T04:29:29;19.90;99.90
21823;DHT22;11074;48.596;9.238;2023-07-08T04:31:54;19.90;99.90
21823;DHT22;11074;48.596;9.238;2023-07-08T04:34:20;20.10;99.90
21823;DHT22;11074;48.596;9.238;2023-07-08T04:36:46;20.10;99.90
21823;DHT22;11074;48.596;9.238;2023-07-08T04:39:13;20.20;99.90
21823;DHT22;11074;48.596;9.238;2023-07-08T04:41:39;20.20;99.90
21823;DHT22;11074;48.596;9.238;2023-07-08T04:44:09;20.30;99.90
21823;DHT22;11074;48.596;9.238;2023-07-08T04:49:19;20.30;99.90
21823;DHT22;11074;48.596;9.238;2023-07-08T04:51:46;20.40;99.90
21823;DHT22;11074;48.596;9.238;2023-07-08T04:54:12;20.40;99.90
21823;DHT22;11074;48.596;9.238;2023-07-08T04:56:43;20.40;99.90
21823;DHT22;11074;48.596;9.238;2023-07-08T04:59:19;20.50;99.90
21823;DHT22;11074;48.596;9.238;2023-07-08T05:01:47;20.50;99.90
21823;DHT22;11074;48.596;9.238;2023-07-08T05:04:15;20.50;99.90
21823;DHT22;11074;48.596;9.238;2023-07-08T05:06:41;20.60;99.90
21823;DHT22;11074;48.596;9.238;2023-07-08T05:09:08;20.60;99.90
21823;DHT22;11074;48.596;9.238;2023-07-08T05:11:34;20.60;99.90
21823;DHT22;11074;48.596;9.238;2023-07-08T05:14:01;20.70;99.90
21823;DHT22;11074;48.596;9.238;2023-07-08T05:16:28;20.60;99.90
21823;DHT22;11074;48.596;9.238;2023-07-08T05:18:54;20.60;99.90
21823;DHT22;11074;48.596;9.238;2023-07-08T05:21:21;20.60;99.90
21823;DHT22;11074;48.596;9.238;2023-07-08T05:23:47;20.60;99.90
21823;DHT22;11074;48.596;9.238;2023-07-08T05:26:17;20.60;99.90
21823;DHT22;11074;48.596;9.238;2023-07-08T05:28:43;20.70;99.90
21823;DHT22;11074;48.596;9.238;2023-07-08T05:31:09;20.80;99.90
21823;DHT22;11074;48.596;9.238;2023-07-08T05:33:34;20.80;99.90
21823;DHT22;11074;48.596;9.238;2023-07-08T05:36:00;20.90;99.90
21823;DHT22;11074;48.596;9.238;2023-07-08T05:38:27;20.90;99.90
21823;DHT22;11074;48.596;9.238;2023-07-08T05:40:57;20.90;99.90
21823;DHT22;11074;48.596;9.238;2023-07-08T05:43:25;21.00;99.90
21823;DHT22;11074;48.596;9.238;2023-07-08T05:45:51;21.00;99.90
21823;DHT22;11074;48.596;9.238;2023-07-08T05:48:22;21.00;99.90
21823;DHT22;11074;48.596;9.238;2023-07-08T05:50:47;21.00;99.90
21823;DHT22;11074;48.596;9.238;2023-07-08T05:53:13;21.00;99.90
21823;DHT22;11074;48.596;9.238;2023-07-08T05:55:39;21.00;99.90
21823;DHT22;11074;48.596;9.238;2023-07-08T05:58:07;21.00;99.90
21823;DHT22;11074;48.596;9.238;2023-07-08T06:00:34;21.10;99.90
21823;DHT22;11074;48.596;9.238;2023-07-08T06:02:59;21.10;99.90
21823;DHT22;11074;48.596;9.238;2023-07-08T06:05:25;21.10;99.90
21823;DHT22;11074;48.596;9.238;2023-07-08T06:07:51;21.20;99.90
21823;DHT22;11074;48.596;9.238;2023-07-08T06:10:16;21.20;99.90
21823;DHT22;11074;48.596;9.238;2023-07-08T06:12:42;21.30;99.90
21823;DHT22;11074;48.596;9.238;2023-07-08T06:15:08;21.30;99.90
21823;DHT22;11074;48.596;9.238;2023-07-08T06:17:34;21.30;99.90
21823;DHT22;11074;48.596;9.238;2023-07-08T06:20:00;21.40;99.90
21823;DHT22;11074;48.596;9.238;2023-07-08T06:22:27;21.30;99.90
21823;DHT22;11074;48.596;9.238;2023-07-08T06:24:52;21.30;99.90
21823;DHT22;11074;48.596;9.238;2023-07-08T06:27:18;21.30;99.90
21823;DHT22;11074;48.596;9.238;2023-07-08T06:29:44;21.30;99.90
21823;DHT22;11074;48.596;9.238;2023-07-08T06:32:10;21.30;99.90
21823;DHT22;11074;48.596;9.238;2023-07-08T06:34:36;21.40;99.90
21823;DHT22;11074;48.596;9.238;2023-07-08T06:37:02;21.40;99.90
21823;DHT22;11074;48.596;9.238;2023-07-08T06:39:27;21.40;99.90
21823;DHT22;11074;48.596;9.238;2023-07-08T06:41:53;21.40;99.90
21823;DHT22;11074;48.596;9.238;2023-07-08T06:44:18;21.40;99.90
21823;DHT22;11074;48.596;9.238;2023-07-08T06:46:44;21.40;99.90
21823;DHT22;11074;48.596;9.238;2023-07-08T06:49:10;21.40;99.90
21823;DHT22;11074;48.596;9.238;2023-07-08T06:51:37;21.40;99.90
21823;DHT22;11074;48.596;9.238;2023-07-08T06:54:03;21.40;99.90
21823;DHT22;11074;48.596;9.238;2023-07-08T06:56:30;21.40;99.90
21823;DHT22;11074;48.596;9.238;2023-07-08T06:58:56;21.40;99.90
21823;DHT22;11074;48.596;9.238;2023-07-08T07:01:22;21.50;99.90
21823;DHT22;11074;48.596;9.238;2023-07-08T07:03:48;21.60;99.90
21823;DHT22;11074;48.596;9.238;2023-07-08T07:06:15;21.70;99.90
21823;DHT22;11074;48.596;9.238;2023-07-08T07:08:41;21.80;99.90
21823;DHT22;11074;48.596;9.238;2023-07-08T07:11:06;21.70;99.90
21823;DHT22;11074;48.596;9.238;2023-07-08T07:13:32;21.80;99.90
21823;DHT22;11074;48.596;9.238;2023-07-08T07:15:58;21.90;99.90
21823;DHT22;11074;48.596;9.238;2023-07-08T07:18:24;21.90;99.90
21823;DHT22;11074;48.596;9.238;2023-07-08T07:20:52;22.00;99.90
21823;DHT22;11074;48.596;9.238;2023-07-08T07:23:19;22.10;99.90
21823;DHT22;11074;48.596;9.238;2023-07-08T07:25:46;22.10;99.90
21823;DHT22;11074;48.596;9.238;2023-07-08T07:28:16;22.20;99.90
21823;DHT22;11074;48.596;9.238;2023-07-08T07:30:46;22.20;99.90
21823;DHT22;11074;48.596;9.238;2023-07-08T07:33:13;22.30;99.90
21823;DHT22;11074;48.596;9.238;2023-07-08T07:35:45;22.40;99.90
21823;DHT22;11074;48.596;9.238;2023-07-08T07:38:12;22.50;99.90
21823;DHT22;11074;48.596;9.238;2023-07-08T07:40:40;22.50;99.90
21823;DHT22;11074;48.596;9.238;2023-07-08T07:43:05;22.60;99.90
21823;DHT22;11074;48.596;9.238;2023-07-08T07:45:31;22.60;99.90
21823;DHT22;11074;48.596;9.238;2023-07-08T07:47:57;22.60;99.90
21823;DHT22;11074;48.596;9.238;2023-07-08T07:50:23;22.60;99.90
21823;DHT22;11074;48.596;9.238;2023-07-08T07:52:49;22.70;99.90
21823;DHT22;11074;48.596;9.238;2023-07-08T07:55:15;22.70;99.90
21823;DHT22;11074;48.596;9.238;2023-07-08T07:57:40;22.70;99.90
21823;DHT22;11074;48.596;9.238;2023-07-08T08:00:07;22.70;99.90
21823;DHT22;11074;48.596;9.238;2023-07-08T08:02:37;22.80;99.90
21823;DHT22;11074;48.596;9.238;2023-07-08T08:05:03;22.70;99.90
21823;DHT22;11074;48.596;9.238;2023-07-08T08:07:29;22.80;99.90
21823;DHT22;11074;48.596;9.238;2023-07-08T08:09:54;22.80;99.90
21823;DHT22;11074;48.596;9.238;2023-07-08T08:12:20;22.80;99.90
21823;DHT22;11074;48.596;9.238;2023-07-08T08:14:50;22.90;99.90
21823;DHT22;11074;48.596;9.238;2023-07-08T08:17:16;22.90;99.90
21823;DHT22;11074;48.596;9.238;2023-07-08T08:19:42;23.00;99.90
21823;DHT22;11074;48.596;9.238;2023-07-08T08:22:08;23.00;99.90
21823;DHT22;11074;48.596;9.238;2023-07-08T08:24:34;23.10;99.90
21823;DHT22;11074;48.596;9.238;2023-07-08T08:27:00;23.10;99.90
21823;DHT22;11074;48.596;9.238;2023-07-08T08:29:26;23.10;99.90
21823;DHT22;11074;48.596;9.238;2023-07-08T08:31:51;23.10;99.90
21823;DHT22;11074;48.596;9.238;2023-07-08T08:34:19;23.10;99.90
21823;DHT22;11074;48.596;9.238;2023-07-08T08:36:45;23.10;99.90
21823;DHT22;11074;48.596;9.238;2023-07-08T08:39:11;23.20;99.90
21823;DHT22;11074;48.596;9.238;2023-07-08T08:41:38;23.20;99.90
21823;DHT22;11074;48.596;9.238;2023-07-08T08:44:16;23.20;99.90
21823;DHT22;11074;48.596;9.238;2023-07-08T08:47:21;23.20;99.90
21823;DHT22;11074;48.596;9.238;2023-07-08T08:52:56;23.30;99.90
21823;DHT22;11074;48.596;9.238;2023-07-08T08:55:25;23.30;99.90
21823;DHT22;11074;48.596;9.238;2023-07-08T09:01:17;23.50;99.90
21823;DHT22;11074;48.596;9.238;2023-07-08T09:06:34;23.50;99.90
21823;DHT22;11074;48.596;9.238;2023-07-08T09:09:13;23.60;99.90
21823;DHT22;11074;48.596;9.238;2023-07-08T09:12:03;23.60;99.90
21823;DHT22;11074;48.596;9.238;2023-07-08T09:14:33;23.70;99.90
21823;DHT22;11074;48.596;9.238;2023-07-08T09:17:16;23.80;99.90
21823;DHT22;11074;48.596;9.238;2023-07-08T09:22:36;24.00;99.90
21823;DHT22;11074;48.596;9.238;2023-07-08T09:27:41;24.10;99.90
21823;DHT22;11074;48.596;9.238;2023-07-08T09:30:14;24.20;99.90
21823;DHT22;11074;48.596;9.238;2023-07-08T09:32:41;24.30;99.90
21823;DHT22;11074;48.596;9.238;2023-07-08T09:35:08;24.30;99.90
21823;DHT22;11074;48.596;9.238;2023-07-08T09:37:45;24.30;99.90
21823;DHT22;11074;48.596;9.238;2023-07-08T09:40:19;24.40;99.90
21823;DHT22;11074;48.596;9.238;2023-07-08T09:42:51;24.40;99.90
21823;DHT22;11074;48.596;9.238;2023-07-08T09:45:20;24.40;99.90
21823;DHT22;11074;48.596;9.238;2023-07-08T09:47:54;24.50;99.90
21823;DHT22;11074;48.596;9.238;2023-07-08T09:50:28;24.50;99.90
21823;DHT22;11074;48.596;9.238;2023-07-08T09:52:56;24.50;99.90
21823;DHT22;11074;48.596;9.238;2023-07-08T09:55:26;24.70;99.90
21823;DHT22;11074;48.596;9.238;2023-07-08T09:57:54;24.80;99.90
21823;DHT22;11074;48.596;9.238;2023-07-08T10:00:32;24.90;99.90
21823;DHT22;11074;48.596;9.238;2023-07-08T10:03:05;25.00;99.90
21823;DHT22;11074;48.596;9.238;2023-07-08T10:05:43;25.10;99.90
21823;DHT22;11074;48.596;9.238;2023-07-08T10:08:20;25.20;99.90
21823;DHT22;11074;48.596;9.238;2023-07-08T10:10:50;25.30;99.90
21823;DHT22;11074;48.596;9.238;2023-07-08T10:13:38;25.30;99.90
21823;DHT22;11074;48.596;9.238;2023-07-08T10:16:24;25.40;99.90
21823;DHT22;11074;48.596;9.238;2023-07-08T10:18:53;25.40;99.90
21823;DHT22;11074;48.596;9.238;2023-07-08T10:21:31;25.50;99.90
21823;DHT22;11074;48.596;9.238;2023-07-08T10:26:39;25.50;99.90
21823;DHT22;11074;48.596;9.238;2023-07-08T10:29:32;25.40;99.90
21823;DHT22;11074;48.596;9.238;2023-07-08T10:35:17;25.50;99.90
21823;DHT22;11074;48.596;9.238;2023-07-08T10:41:35;25.80;99.90
21823;DHT22;11074;48.596;9.238;2023-07-08T10:44:15;26.00;99.90
21823;DHT22;11074;48.596;9.238;2023-07-08T10:47:07;26.10;99.90
21823;DHT22;11074;48.596;9.238;2023-07-08T10:53:22;26.60;99.90
21823;DHT22;11074;48.596;9.238;2023-07-08T10:56:26;26.80;99.90
21823;DHT22;11074;48.596;9.238;2023-07-08T11:10:40;27.10;99.90
21823;DHT22;11074;48.596;9.238;2023-07-08T11:13:18;27.10;99.90
21823;DHT22;11074;48.596;9.238;2023-07-08T11:15:53;27.20;99.90
21823;DHT22;11074;48.596;9.238;2023-07-08T11:18:43;27.30;99.90
21823;DHT22;11074;48.596;9.238;2023-07-08T11:21:26;27.60;99.90
21823;DHT22;11074;48.596;9.238;2023-07-08T11:24:24;27.80;99.90
21823;DHT22;11074;48.596;9.238;2023-07-08T11:26:57;28.00;99.90
21823;DHT22;11074;48.596;9.238;2023-07-08T11:32:04;28.10;99.90
21823;DHT22;11074;48.596;9.238;2023-07-08T11:34:32;28.30;99.90
21823;DHT22;11074;48.596;9.238;2023-07-08T11:37:00;28.30;99.90
21823;DHT22;11074;48.596;9.238;2023-07-08T11:39:32;28.40;99.90
21823;DHT22;11074;48.596;9.238;2023-07-08T11:42:22;28.70;99.90
21823;DHT22;11074;48.596;9.238;2023-07-08T11:44:58;28.70;99.90
21823;DHT22;11074;48.596;9.238;2023-07-08T11:47:35;28.90;99.90
21823;DHT22;11074;48.596;9.238;2023-07-08T11:50:19;29.20;99.90
21823;DHT22;11074;48.596;9.238;2023-07-08T11:52:52;29.50;99.90
21823;DHT22;11074;48.596;9.238;2023-07-08T11:55:34;29.60;99.70
21823;DHT22;11074;48.596;9.238;2023-07-08T11:58:00;29.80;99.10
21823;DHT22;11074;48.596;9.238;2023-07-08T12:00:30;29.90;98.40
21823;DHT22;11074;48.596;9.238;2023-07-08T12:03:04;30.00;98.60
21823;DHT22;11074;48.596;9.238;2023-07-08T12:05:45;30.00;98.60
21823;DHT22;11074;48.596;9.238;2023-07-08T12:08:14;30.20;98.90
21823;DHT22;11074;48.596;9.238;2023-07-08T12:10:51;30.30;98.40
21823;DHT22;11074;48.596;9.238;2023-07-08T12:13:21;30.30;98.40
21823;DHT22;11074;48.596;9.238;2023-07-08T12:15:48;30.30;98.20
21823;DHT22;11074;48.596;9.238;2023-07-08T12:18:21;30.40;97.70
21823;DHT22;11074;48.596;9.238;2023-07-08T12:20:56;30.50;97.30
21823;DHT22;11074;48.596;9.238;2023-07-08T12:23:25;30.70;97.70
21823;DHT22;11074;48.596;9.238;2023-07-08T12:25:53;31.00;97.60
21823;DHT22;11074;48.596;9.238;2023-07-08T12:28:20;31.10;97.60
21823;DHT22;11074;48.596;9.238;2023-07-08T12:30:48;31.40;97.30
21823;DHT22;11074;48.596;9.238;2023-07-08T12:33:29;31.70;96.80
21823;DHT22;11074;48.596;9.238;2023-07-08T12:36:00;32.00;96.50
21823;DHT22;11074;48.596;9.238;2023-07-08T12:38:29;32.30;95.70
21823;DHT22;11074;48.596;9.238;2023-07-08T12:41:03;32.30;95.40
21823;DHT22;11074;48.596;9.238;2023-07-08T12:43:34;32.40;95.50
21823;DHT22;11074;48.596;9.238;2023-07-08T12:46:00;32.50;95.30
21823;DHT22;11074;48.596;9.238;2023-07-08T12:48:31;32.60;94.50
21823;DHT22;11074;48.596;9.238;2023-07-08T12:51:02;32.60;94.60
21823;DHT22;11074;48.596;9.238;2023-07-08T12:53:28;32.50;94.80
21823;DHT22;11074;48.596;9.238;2023-07-08T12:55:56;32.40;94.90
21823;DHT22;11074;48.596;9.238;2023-07-08T12:58:25;32.30;94.70
21823;DHT22;11074;48.596;9.238;2023-07-08T13:00:55;32.30;95.00
21823;DHT22;11074;48.596;9.238;2023-07-08T13:03:30;32.40;94.60
21823;DHT22;11074;48.596;9.238;2023-07-08T13:06:00;32.40;94.70
21823;DHT22;11074;48.596;9.238;2023-07-08T13:08:30;32.50;95.10
21823;DHT22;11074;48.596;9.238;2023-07-08T13:11:02;32.40;95.10
21823;DHT22;11074;48.596;9.238;2023-07-08T13:13:35;32.50;94.40
21823;DHT22;11074;48.596;9.238;2023-07-08T13:16:05;32.40;94.30
21823;DHT22;11074;48.596;9.238;2023-07-08T13:18:35;32.60;94.50
21823;DHT22;11074;48.596;9.238;2023-07-08T13:21:05;32.50;94.40
21823;DHT22;11074;48.596;9.238;2023-07-08T13:23:34;32.40;94.90
21823;DHT22;11074;48.596;9.238;2023-07-08T13:26:10;32.40;94.90
21823;DHT22;11074;48.596;9.238;2023-07-08T13:28:39;32.50;94.20
21823;DHT22;11074;48.596;9.238;2023-07-08T13:31:32;32.50;94.40
21823;DHT22;11074;48.596;9.238;2023-07-08T13:34:06;32.50;94.60
21823;DHT22;11074;48.596;9.238;2023-07-08T13:36:37;32.60;94.90
21823;DHT22;11074;48.596;9.238;2023-07-08T13:39:08;32.80;94.10
21823;DHT22;11074;48.596;9.238;2023-07-08T13:41:43;32.90;94.50
21823;DHT22;11074;48.596;9.238;2023-07-08T13:44:10;32.80;94.40
21823;DHT22;11074;48.596;9.238;2023-07-08T13:46:37;32.90;94.60
21823;DHT22;11074;48.596;9.238;2023-07-08T13:49:12;32.90;94.60
21823;DHT22;11074;48.596;9.238;2023-07-08T13:51:40;32.80;93.50
21823;DHT22;11074;48.596;9.238;2023-07-08T13:54:14;32.80;93.70
21823;DHT22;11074;48.596;9.238;2023-07-08T13:56:45;32.80;94.40
21823;DHT22;11074;48.596;9.238;2023-07-08T13:59:21;32.80;94.90
21823;DHT22;11074;48.596;9.238;2023-07-08T14:01:51;32.80;93.80
21823;DHT22;11074;48.596;9.238;2023-07-08T14:04:23;33.00;93.80
21823;DHT22;11074;48.596;9.238;2023-07-08T14:06:55;33.30;94.00
21823;DHT22;11074;48.596;9.238;2023-07-08T14:09:22;33.60;93.30
21823;DHT22;11074;48.596;9.238;2023-07-08T14:11:50;33.30;92.80
21823;DHT22;11074;48.596;9.238;2023-07-08T14:14:17;33.20;93.30
21823;DHT22;11074;48.596;9.238;2023-07-08T14:16:45;33.40;92.90
21823;DHT22;11074;48.596;9.238;2023-07-08T14:19:16;33.50;93.40
21823;DHT22;11074;48.596;9.238;2023-07-08T14:21:56;33.60;92.70
21823;DHT22;11074;48.596;9.238;2023-07-08T14:24:23;33.60;92.80
21823;DHT22;11074;48.596;9.238;2023-07-08T14:26:50;33.60;93.00
21823;DHT22;11074;48.596;9.238;2023-07-08T14:29:15;33.60;94.40
21823;DHT22;11074;48.596;9.238;2023-07-08T14:31:41;33.40;92.70
21823;DHT22;11074;48.596;9.238;2023-07-08T14:34:11;33.40;92.30
21823;DHT22;11074;48.596;9.238;2023-07-08T14:36:40;33.20;92.20
21823;DHT22;11074;48.596;9.238;2023-07-08T14:39:14;33.20;92.20
21823;DHT22;11074;48.596;9.238;2023-07-08T14:41:42;33.30;92.60
21823;DHT22;11074;48.596;9.238;2023-07-08T14:46:52;33.60;92.60
21823;DHT22;11074;48.596;9.238;2023-07-08T14:49:20;33.70;91.90
21823;DHT22;11074;48.596;9.238;2023-07-08T14:51:48;33.70;91.30
21823;DHT22;11074;48.596;9.238;2023-07-08T14:54:14;33.70;91.70
21823;DHT22;11074;48.596;9.238;2023-07-08T14:56:41;33.80;91.70
21823;DHT22;11074;48.596;9.238;2023-07-08T14:59:14;33.90;91.80
21823;DHT22;11074;48.596;9.238;2023-07-08T15:01:43;34.00;90.90
21823;DHT22;11074;48.596;9.238;2023-07-08T15:04:11;34.10;92.80
21823;DHT22;11074;48.596;9.238;2023-07-08T15:06:38;34.10;89.60
21823;DHT22;11074;48.596;9.238;2023-07-08T15:09:04;33.90;89.30
21823;DHT22;11074;48.596;9.238;2023-07-08T15:11:33;33.60;89.50
21823;DHT22;11074;48.596;9.238;2023-07-08T15:14:00;33.60;90.30
21823;DHT22;11074;48.596;9.238;2023-07-08T15:16:27;33.30;90.40
21823;DHT22;11074;48.596;9.238;2023-07-08T15:18:53;33.10;91.50
21823;DHT22;11074;48.596;9.238;2023-07-08T15:21:19;32.80;92.00
21823;DHT22;11074;48.596;9.238;2023-07-08T15:23:44;32.60;92.80
21823;DHT22;11074;48.596;9.238;2023-07-08T15:26:11;32.60;93.30
21823;DHT22;11074;48.596;9.238;2023-07-08T15:28:40;32.80;93.50
21823;DHT22;11074;48.596;9.238;2023-07-08T15:31:14;33.00;91.80
21823;DHT22;11074;48.596;9.238;2023-07-08T15:33:42;33.30;91.20
21823;DHT22;11074;48.596;9.238;2023-07-08T15:36:12;33.50;93.60
21823;DHT22;11074;48.596;9.238;2023-07-08T15:38:39;33.60;92.40
21823;DHT22;11074;48.596;9.238;2023-07-08T15:41:20;33.70;92.70
21823;DHT22;11074;48.596;9.238;2023-07-08T15:43:48;33.70;92.00
21823;DHT22;11074;48.596;9.238;2023-07-08T15:46:15;33.80;92.00
21823;DHT22;11074;48.596;9.238;2023-07-08T15:48:42;33.80;91.70
21823;DHT22;11074;48.596;9.238;2023-07-08T15:51:11;33.90;91.00
21823;DHT22;11074;48.596;9.238;2023-07-08T15:53:39;33.90;90.70
21823;DHT22;11074;48.596;9.238;2023-07-08T15:56:04;34.00;90.40
21823;DHT22;11074;48.596;9.238;2023-07-08T15:58:33;34.00;90.30
21823;DHT22;11074;48.596;9.238;2023-07-08T16:01:01;34.10;90.30
21823;DHT22;11074;48.596;9.238;2023-07-08T16:03:30;34.10;90.80
21823;DHT22;11074;48.596;9.238;2023-07-08T16:05:59;34.10;90.40
21823;DHT22;11074;48.596;9.238;2023-07-08T16:08:25;33.90;90.40
21823;DHT22;11074;48.596;9.238;2023-07-08T16:11:00;33.90;90.40
21823;DHT22;11074;48.596;9.238;2023-07-08T16:13:31;33.90;90.60
21823;DHT22;11074;48.596;9.238;2023-07-08T16:16:00;33.90;91.80
21823;DHT22;11074;48.596;9.238;2023-07-08T16:18:26;34.00;91.10
21823;DHT22;11074;48.596;9.238;2023-07-08T16:20:52;34.10;91.00
21823;DHT22;11074;48.596;9.238;2023-07-08T16:23:18;34.00;90.20
21823;DHT22;11074;48.596;9.238;2023-07-08T16:25:47;33.90;90.00
21823;DHT22;11074;48.596;9.238;2023-07-08T16:28:31;33.80;89.00
21823;DHT22;11074;48.596;9.238;2023-07-08T16:31:09;33.80;90.00
21823;DHT22;11074;48.596;9.238;2023-07-08T16:33:36;33.70;89.70
21823;DHT22;11074;48.596;9.238;2023-07-08T16:36:02;33.70;88.90
21823;DHT22;11074;48.596;9.238;2023-07-08T16:38:28;33.60;89.60
21823;DHT22;11074;48.596;9.238;2023-07-08T16:40:54;33.60;89.30